Search for airport 
image banner adimage banner adimage banner ad
image banner ad

KLAX - Los Angeles Intl

Located in Los Angeles, United States

ICAO - LAX, IATA - LAX

Data provided by Airmate  

General information

Coordinates: N33°56'33" W118°24'29"
Elevation is 128 feet MSL.
Magnetic variation is 12° East
View others Airports in California

Operational data

Special qualification required
Current time UTC:
Current local time:
Weather
METAR: KLAX 260753Z 35003KT 8SM OVC010 18/14 A3002 RMK AO2 SLP162 T01780144 402060161 $
TAF: KLAX 260657Z 2607/2712 26005KT P6SM OVC010 FM260800 VRB03KT P6SM OVC011 FM261700 25007KT P6SM BKN013 FM262000 26012KT P6SM SCT015 FM270300 25008KT P6SM BKN012 FM270800 26005KT P6SM OVC015
View NOTAMs / SUP AIP / TFR affecting this airport [VIEW]
Communications frequencies: [VIEW]

Runways:

RWY identifierQFULength (ft)Width (ft)SurfaceLDA (ft)
06R83°10885150CONC9748
24L263°10885150CONC9483
06L83°8926150OTHER8566
24R263°8926150OTHER8926
07R83°11095200OTHER11095
25L263°11095200OTHER11095
07L83°12923150CONC11259
25R263°12923150CONC11134

Airport contact information

Address: Los Angeles United States

Satellite view of KLAX